Vaaraa aiheuttavia sääilmiöitä ei ole odotettavissa.    Ei varoituksia

Webkamera Lisätietoa Webcam


Yksityisiä sääasemia lähellä:

Sääasema Juupajoki

Sääasema Orivesi

Sääasema Muurame

Sääasema Jyväskylä

Sääasema Vihtavuori


Löydät sääaseman tiedot myös:

Finland Weather Exchange

European Weather Network

Weather Underground

AWEKAS



Säätiedot lähimmiltä METAR asemilta

   
EFHA - Halli (Fin-Afb), Finland
Etäisyys asemalta: Kaakko 25 km
Päivitetty: 16.02.2019 05:50
Sumua, Pilvistä  
Sumua, Pilvistä  
   Tuuli: Etelä 4.6 m/s
Tuuli: Etelä 4.6 m/s
Lämpötila: 0°C
Tuulen hyytävyys: -4°C
Kastepiste: 0°C
Kosteus: 100%
Ilmanpaine: 1005 hPa
Pilvisyys: Pilvistä
Näkyvyys: 0 km
Pilvitiedot: Pilvistä 61 m
EFHA 160350Z AUTO 18009KT 0250 R26/0900U FG VV002 00/00 Q1005
EFJY - Jyvaskyla (Mil/Civ), Finland
Etäisyys asemalta: Koillinen 75 km
Päivitetty: 16.02.2019 05:50
Utua, Melkein pilvistä  
Utua, Melkein pilvistä  
   Tuuli: Eteläkaakko 2.6 m/s
Tuuli: Eteläkaakko 2.6 m/s
Lämpötila: -1°C
Tuulen hyytävyys: -4°C
Kastepiste: -2°C
Kosteus: 93%
Ilmanpaine: 1004 hPa
Pilvisyys: Melkein pilvistä
Näkyvyys: 1 km
Pilvitiedot: Melkein pilvistä 61 m
EFJY 160350Z AUTO 15005KT 1300 BR BKN002 M01/M02 Q1004
EFTP - Tampere/Pirkkala, Finland
Etäisyys asemalta: Lounas 81 km
Päivitetty: 16.02.2019 05:50
Puolipilvistä  
Puolipilvistä  
   Tuuli: Etelä 3.6 m/s
Tuuli: Etelä 3.6 m/s
Lämpötila: 1°C
Tuulen hyytävyys: -3°C
Kastepiste: 1°C
Kosteus: 100%
Ilmanpaine: 1007 hPa
Pilvisyys: Puolipilvistä
Näkyvyys: Enemmän kuin 10 km
Pilvitiedot: Vähäistä pilvisyyttä 183 m,
Puolipilvistä 274 m
EFTP 160350Z AUTO 19007KT 9999 FEW006 SCT009 01/01 Q1007
EFSI - Seinajoki-Ilmajoki, Finland
Etäisyys asemalta: Luode 114 km
Päivitetty: 16.02.2019 05:50
Melkein pilvistä  
Melkein pilvistä  
   Tuuli: Etelä 3.1 m/s
Tuuli: Etelä 3.1 m/s
Lämpötila: 1°C
Tuulen hyytävyys: -2°C
Kastepiste: 0°C
Kosteus: 93%
Ilmanpaine: 1003 hPa
Pilvisyys: Melkein pilvistä
Pilvitiedot: Puolipilvistä 152 m,
Melkein pilvistä 213 m,
Melkein pilvistä 274 m
EFSI 160350Z AUTO 17006KT 130V220 //// SCT005 BKN007 BKN009 01/00 Q1003
EFMI - Mikkeli, Finland
Etäisyys asemalta: Itäkaakko 147 km
Päivitetty: 16.02.2019 05:50
Selkeää  
Selkeää  
   Tuuli: Itäkaakko 1 m/s
Tuuli: Itäkaakko 1 m/s
Lämpötila: -1°C
Kastepiste: -1°C
Kosteus: 100%
Ilmanpaine: 1007 hPa
Näkyvyys: Enemmän kuin 10 km
Pilvitiedot: Selkeää
EFMI 160350Z AUTO 12002KT CAVOK M01/M01 Q1007
EFPO - Pori (Mil/Civ), Finland
Etäisyys asemalta: Länsilounas 154 km
Päivitetty: 16.02.2019 05:50
Selkeää  
Selkeää  
   Tuuli: Lounas 5.7 m/s
Tuuli: Lounas 5.7 m/s
Lämpötila: 3°C
Tuulen hyytävyys: -2°C
Kastepiste: -1°C
Kosteus: 75%
Ilmanpaine: 1006 hPa
Näkyvyys: Enemmän kuin 10 km
Pilvitiedot: Selkeää
EFPO 160350Z AUTO 22011KT 190V250 CAVOK 03/M01 Q1006
EFUT - Utti (Fin-Afb), Finland
Etäisyys asemalta: Kaakko 180 km
Päivitetty: 16.02.2019 05:50
Jäätävää, Sumua, Pilvistä  
Jäätävää, Sumua, Pilvistä  
   Tuuli: Etelä 4.1 m/s
Tuuli: Etelä 4.1 m/s
Lämpötila: -1°C
Tuulen hyytävyys: -6°C
Kastepiste: -1°C
Kosteus: 100%
Ilmanpaine: 1009 hPa
Pilvisyys: Pilvistä
Näkyvyys: 1 km
Pilvitiedot: Pilvistä 31 m
EFUT 160350Z AUTO 19008KT 0550 R25/0550 FZFG VV001 M01/M01 Q1009
EFVA - Vaasa, Finland
Etäisyys asemalta: Luode 180 km
Päivitetty: 16.02.2019 05:50
Selkeää  
Selkeää  
   Tuuli: Etelä 5.1 m/s
Tuuli: Etelä 5.1 m/s
Lämpötila: 1°C
Tuulen hyytävyys: -4°C
Kastepiste: 0°C
Kosteus: 93%
Ilmanpaine: 1001 hPa
Näkyvyys: Enemmän kuin 10 km
Pilvitiedot: Selkeää
EFVA 160350Z AUTO 19010KT CAVOK 01/M00 Q1001
EFHK - Helsinki/Vantaa, Finland
Etäisyys asemalta: Etelä 191 km
Päivitetty: 16.02.2019 05:50
Utua, Pilvistä  
Utua, Pilvistä  
   Tuuli: Etelälounas 4.1 m/s
Tuuli: Etelälounas 4.1 m/s
Lämpötila: 1°C
Tuulen hyytävyys: -3°C
Kastepiste: 1°C
Kosteus: 100%
Ilmanpaine: 1010 hPa
Pilvisyys: Pilvistä
Näkyvyys: 3 km
Pilvitiedot: Pilvistä 61 m
EFHK 160350Z 21008KT 3000 BR OVC002 01/01 Q1010 BECMG 9999

Alkuperäinen skripti  Saratoga-weather.org Sovitettu myös templatelle  Weerstation Leuven

Laitteet joita käytämme:

Sääasema
Davis VP2

Sääasemaohjelma
Cumulus

Sääaseman palvelin
HP ProBook 6460b

Palveluntarjoaja
Radicenter

Davis VP2

Cumulus

HP ProBook 6460b

Radicenter




Flag Counter Cumulus Top Weather Sites